createdAt,value
2018-07-05T00:01:04.190Z,82.60
2018-07-05T00:02:35.862Z,80.00
2018-07-05T00:04:07.334Z,106.20
2018-07-05T00:05:38.906Z,99.00
2018-07-05T00:07:10.484Z,100.10
2018-07-05T00:08:42.049Z,190.40
2018-07-05T00:10:13.620Z,93.10
2018-07-05T00:11:45.192Z,103.20
2018-07-05T00:13:16.764Z,101.70
2018-07-05T00:14:48.336Z,110.00
2018-07-05T00:16:19.907Z,103.30
2018-07-05T00:17:51.481Z,107.10
2018-07-05T00:19:23.051Z,87.00
2018-07-05T00:20:55.524Z,86.60
2018-07-05T00:22:26.195Z,111.90
2018-07-05T00:23:57.766Z,114.40
2018-07-05T00:25:29.339Z,136.70
2018-07-05T00:27:00.911Z,151.90
2018-07-05T00:28:32.482Z,163.50
2018-07-05T00:30:04.054Z,122.90
2018-07-05T00:31:35.625Z,140.50
2018-07-05T00:33:07.347Z,188.60
2018-07-05T00:34:38.768Z,172.60
2018-07-05T00:36:10.342Z,189.30
2018-07-05T00:37:41.912Z,145.90
2018-07-05T00:39:13.785Z,147.00
2018-07-05T00:40:45.056Z,150.30
2018-07-05T00:42:16.628Z,134.20
2018-07-05T00:43:48.199Z,144.00
2018-07-05T00:45:19.771Z,164.80
2018-07-05T00:46:51.343Z,146.30
2018-07-05T00:48:22.915Z,140.00
2018-07-05T00:49:54.487Z,155.10
2018-07-05T00:51:26.159Z,198.90
2018-07-05T00:52:57.629Z,153.50
2018-07-05T00:54:29.202Z,164.10
2018-07-05T00:56:00.773Z,175.40
2018-07-05T00:57:32.444Z,167.60
2018-07-05T00:59:03.917Z,202.90
2018-07-05T01:00:35.487Z,158.60
2018-07-05T01:02:07.060Z,149.40
2018-07-05T01:03:38.630Z,153.20
2018-07-05T01:05:10.201Z,154.20
2018-07-05T01:06:41.775Z,154.00
2018-07-05T01:08:13.345Z,169.70
2018-07-05T01:09:44.915Z,150.10
2018-07-05T01:11:16.487Z,177.20
2018-07-05T01:12:48.062Z,162.30
2018-07-05T01:14:19.629Z,167.20
2018-07-05T01:15:51.304Z,171.00
2018-07-05T01:17:22.775Z,166.40
2018-07-05T01:18:54.344Z,186.90
2018-07-05T01:20:25.915Z,174.00
2018-07-05T01:21:57.488Z,177.70
2018-07-05T01:23:29.058Z,182.40
2018-07-05T01:25:00.629Z,182.50
2018-07-05T01:26:32.200Z,195.30
2018-07-05T01:28:03.771Z,182.70
2018-07-05T01:29:35.343Z,212.70
2018-07-05T01:31:06.914Z,233.40
2018-07-05T01:32:38.485Z,200.10
2018-07-05T01:34:10.157Z,232.20
2018-07-05T01:35:41.628Z,215.20
2018-07-05T01:37:13.201Z,207.30
2018-07-05T01:38:44.770Z,221.10
2018-07-05T01:40:16.492Z,207.50
2018-07-05T01:41:47.913Z,226.40
2018-07-05T01:43:19.484Z,206.80
2018-07-05T01:44:51.058Z,216.10
2018-07-05T01:46:22.627Z,207.50
2018-07-05T01:47:54.197Z,195.40
2018-07-05T01:49:25.768Z,205.10
2018-07-05T01:50:57.340Z,206.30
2018-07-05T01:52:29.462Z,219.40
2018-07-05T01:54:00.482Z,201.90
2018-07-05T01:55:32.052Z,215.30
2018-07-05T01:57:03.624Z,203.00
2018-07-05T01:58:35.194Z,222.90
2018-07-05T02:00:06.766Z,224.40
2018-07-05T02:01:38.335Z,223.00
2018-07-05T02:03:09.905Z,202.50
2018-07-05T02:04:41.480Z,192.90
2018-07-05T02:06:13.048Z,209.40
2018-07-05T02:07:44.618Z,229.60
2018-07-05T02:09:16.189Z,214.40
2018-07-05T02:10:47.859Z,206.40
2018-07-05T02:12:19.330Z,211.80
2018-07-05T02:13:50.900Z,227.80
2018-07-05T02:15:22.470Z,213.80
2018-07-05T02:16:54.041Z,204.50
2018-07-05T02:18:25.619Z,198.50
2018-07-05T02:19:57.182Z,206.10
2018-07-05T02:21:28.757Z,212.80
2018-07-05T02:23:00.426Z,194.90
2018-07-05T02:24:31.894Z,209.00
2018-07-05T02:26:03.464Z,207.90
2018-07-05T02:27:35.035Z,232.60
2018-07-05T02:29:06.955Z,339.60
2018-07-05T02:30:38.180Z,382.60
2018-07-05T02:32:09.747Z,322.90
2018-07-05T02:33:41.315Z,355.00
2018-07-05T02:35:12.886Z,462.50
2018-07-05T02:36:44.456Z,504.00
2018-07-05T02:38:16.026Z,399.10
2018-07-05T02:39:47.597Z,377.60
2018-07-05T02:41:19.167Z,462.70
2018-07-05T02:42:50.737Z,332.70
2018-07-05T02:44:22.308Z,302.80
2018-07-05T02:45:53.881Z,253.10
2018-07-05T02:47:25.548Z,252.70
2018-07-05T02:48:57.018Z,236.50
2018-07-05T02:50:28.589Z,214.00
2018-07-05T02:52:00.163Z,219.20
2018-07-05T02:53:31.729Z,198.20
2018-07-05T02:55:03.299Z,201.50
2018-07-05T02:56:34.870Z,198.80
2018-07-05T02:58:06.441Z,187.30
2018-07-05T02:59:38.261Z,315.30
2018-07-05T03:01:09.581Z,296.80
2018-07-05T03:02:41.151Z,282.90
2018-07-05T03:04:12.721Z,237.80
2018-07-05T03:05:44.392Z,207.10
2018-07-05T03:07:15.862Z,228.20
2018-07-05T03:08:47.434Z,219.70
2018-07-05T03:10:19.002Z,221.30
2018-07-05T03:11:50.573Z,235.20
2018-07-05T03:13:22.142Z,216.60
2018-07-05T03:14:53.723Z,255.90
2018-07-05T03:16:25.291Z,207.10
2018-07-05T03:17:56.854Z,222.30
2018-07-05T03:19:28.431Z,222.70
2018-07-05T03:20:59.995Z,236.10
2018-07-05T03:22:31.564Z,241.00
2018-07-05T03:24:03.385Z,206.30
2018-07-05T03:25:34.704Z,213.10
2018-07-05T03:27:06.274Z,216.20
2018-07-05T03:28:37.844Z,204.60
2018-07-05T03:30:09.665Z,219.00
2018-07-05T03:31:40.989Z,226.90
2018-07-05T03:33:12.555Z,216.40
2018-07-05T03:34:44.126Z,202.70
2018-07-05T03:36:15.694Z,216.50
2018-07-05T03:37:47.265Z,229.40
2018-07-05T03:39:18.835Z,213.40
2018-07-05T03:40:50.404Z,210.80
2018-07-05T03:42:22.275Z,185.80
2018-07-05T03:43:53.544Z,223.30
2018-07-05T03:45:25.114Z,229.30
2018-07-05T03:46:56.683Z,245.90
2018-07-05T03:48:28.253Z,251.30
2018-07-05T03:49:59.823Z,222.60
2018-07-05T03:51:31.421Z,224.40
2018-07-05T03:53:02.963Z,201.10
2018-07-05T03:54:34.535Z,199.90
2018-07-05T03:56:06.103Z,207.10
2018-07-05T03:57:37.672Z,219.40
2018-07-05T03:59:09.242Z,229.90
2018-07-05T04:00:40.912Z,216.20
2018-07-05T04:02:12.382Z,201.60
2018-07-05T04:03:43.953Z,189.80
2018-07-05T04:05:15.521Z,219.50
2018-07-05T04:06:47.091Z,210.30
2018-07-05T04:08:18.685Z,206.00
2018-07-05T04:09:50.231Z,229.30
2018-07-05T04:11:21.801Z,199.90
2018-07-05T04:12:53.521Z,200.60
2018-07-05T04:14:24.943Z,215.10
2018-07-05T04:15:56.510Z,236.90
2018-07-05T04:17:28.080Z,267.80
2018-07-05T04:18:59.901Z,288.20
2018-07-05T04:20:31.220Z,259.10
2018-07-05T04:22:02.790Z,186.90
2018-07-05T04:23:34.359Z,190.30
2018-07-05T04:25:06.080Z,180.60
2018-07-05T04:26:37.501Z,186.40
2018-07-05T04:28:09.070Z,186.80
2018-07-05T04:29:40.639Z,196.80
2018-07-05T04:31:12.209Z,207.80
2018-07-05T04:32:43.779Z,191.10
2018-07-05T04:34:15.420Z,210.90
2018-07-05T04:35:46.919Z,245.90
2018-07-05T04:37:18.589Z,185.80
2018-07-05T04:38:50.060Z,171.40
2018-07-05T04:40:21.627Z,178.00
2018-07-05T04:41:53.197Z,186.60
2018-07-05T04:43:24.867Z,203.80
2018-07-05T04:44:56.341Z,193.20
2018-07-05T04:46:27.907Z,184.40
2018-07-05T04:47:59.574Z,195.50
2018-07-05T04:49:31.054Z,179.10
2018-07-05T04:51:02.616Z,173.20
2018-07-05T04:52:34.185Z,182.50
2018-07-05T04:54:05.756Z,177.90
2018-07-05T04:55:37.485Z,175.80
2018-07-05T04:57:08.895Z,189.20
2018-07-05T04:58:40.471Z,170.20
2018-07-05T05:00:12.034Z,172.70
2018-07-05T05:01:43.604Z,246.20
2018-07-05T05:03:15.173Z,282.60
2018-07-05T05:04:46.754Z,226.70
2018-07-05T05:06:18.313Z,170.50
2018-07-05T05:07:49.883Z,282.60
2018-07-05T05:09:21.454Z,280.50
2018-07-05T05:10:53.023Z,184.50
2018-07-05T05:12:24.605Z,239.50
2018-07-05T05:13:56.462Z,232.30
2018-07-05T05:15:27.736Z,182.50
2018-07-05T05:16:59.306Z,202.60
2018-07-05T05:18:30.871Z,165.20
2018-07-05T05:20:02.441Z,156.10
2018-07-05T05:21:34.011Z,158.40
2018-07-05T05:23:05.580Z,169.80
2018-07-05T05:24:37.150Z,220.70
2018-07-05T05:26:08.821Z,213.10
2018-07-05T05:27:40.292Z,196.30
2018-07-05T05:29:11.859Z,183.60
2018-07-05T05:30:43.428Z,169.60
2018-07-05T05:32:15.098Z,163.70
2018-07-05T05:33:46.568Z,165.90
2018-07-05T05:35:18.137Z,164.90
2018-07-05T05:36:49.707Z,176.30
2018-07-05T05:38:21.276Z,181.60
2018-07-05T05:39:52.845Z,187.60
2018-07-05T05:41:24.416Z,217.60
2018-07-05T05:42:55.985Z,285.20
2018-07-05T05:44:27.554Z,270.30
2018-07-05T05:45:59.123Z,271.50
2018-07-05T05:47:30.693Z,269.20
2018-07-05T05:49:02.262Z,267.00
2018-07-05T05:50:34.032Z,202.50
2018-07-05T05:52:05.401Z,215.20
2018-07-05T05:53:36.971Z,212.90
2018-07-05T05:55:08.542Z,185.30
2018-07-05T05:56:40.212Z,145.10
2018-07-05T05:58:11.680Z,155.50
2018-07-05T05:59:43.250Z,181.20
2018-07-05T06:01:14.820Z,211.10
2018-07-05T06:02:46.640Z,242.50
2018-07-05T06:04:17.959Z,233.10
2018-07-05T06:05:49.528Z,208.50
2018-07-05T06:07:21.103Z,168.00
2018-07-05T06:08:52.768Z,176.10
2018-07-05T06:10:24.238Z,141.20
2018-07-05T06:11:55.811Z,140.10
2018-07-05T06:13:27.376Z,152.20
2018-07-05T06:14:58.948Z,192.40
2018-07-05T06:16:30.517Z,176.60
2018-07-05T06:18:02.087Z,164.50
2018-07-05T06:19:33.655Z,158.70
2018-07-05T06:21:05.229Z,146.30
2018-07-05T06:22:36.795Z,162.70
2018-07-05T06:24:08.364Z,180.00
2018-07-05T06:25:39.970Z,181.70
2018-07-05T06:27:11.703Z,184.10
2018-07-05T06:28:43.076Z,170.80
2018-07-05T06:30:14.642Z,166.20
2018-07-05T06:31:46.212Z,138.30
2018-07-05T06:33:18.032Z,151.70
2018-07-05T06:34:49.351Z,135.60
2018-07-05T06:36:20.922Z,157.90
2018-07-05T06:37:52.489Z,154.40
2018-07-05T06:39:24.059Z,166.70
2018-07-05T06:40:55.629Z,149.70
2018-07-05T06:42:27.199Z,172.50
2018-07-05T06:43:58.767Z,208.80
2018-07-05T06:45:30.636Z,212.80
2018-07-05T06:47:01.906Z,201.90
2018-07-05T06:48:33.475Z,162.40
2018-07-05T06:50:05.045Z,154.40
2018-07-05T06:51:36.614Z,150.50
2018-07-05T06:53:08.227Z,180.90
2018-07-05T06:54:39.752Z,156.60
2018-07-05T06:56:11.321Z,164.30
2018-07-05T06:57:42.991Z,179.40
2018-07-05T06:59:14.477Z,172.20
2018-07-05T07:00:46.031Z,158.30
2018-07-05T07:02:17.598Z,161.10
2018-07-05T07:03:49.519Z,184.40
2018-07-05T07:05:20.737Z,198.70
2018-07-05T07:06:52.306Z,194.30
2018-07-05T07:08:23.875Z,220.50
2018-07-05T07:09:55.595Z,199.70
2018-07-05T07:11:27.014Z,172.30
2018-07-05T07:12:58.583Z,158.10
2018-07-05T07:14:30.153Z,169.50
2018-07-05T07:16:01.870Z,188.60
2018-07-05T07:17:33.291Z,204.40
2018-07-05T07:19:04.861Z,233.00
2018-07-05T07:20:36.429Z,217.40
2018-07-05T07:22:08.099Z,156.70
2018-07-05T07:23:39.568Z,153.30
2018-07-05T07:25:11.137Z,192.70
2018-07-05T07:26:42.706Z,228.60
2018-07-05T07:28:14.375Z,179.30
2018-07-05T07:29:45.845Z,181.60
2018-07-05T07:31:17.448Z,170.00
2018-07-05T07:32:48.990Z,160.70
2018-07-05T07:34:20.803Z,137.20
2018-07-05T07:35:52.122Z,132.60
2018-07-05T07:37:23.743Z,144.50
2018-07-05T07:38:55.294Z,138.80
2018-07-05T07:40:26.931Z,142.70
2018-07-05T07:41:58.401Z,177.90
2018-07-05T07:43:29.969Z,159.50
2018-07-05T07:45:01.541Z,165.40
2018-07-05T07:46:33.258Z,149.60
2018-07-05T07:48:04.677Z,152.40
2018-07-05T07:49:36.245Z,144.60
2018-07-05T07:51:07.815Z,174.40
2018-07-05T07:52:39.484Z,163.20
2018-07-05T07:54:10.954Z,174.20
2018-07-05T07:55:42.522Z,185.00
2018-07-05T07:57:14.092Z,163.50
2018-07-05T07:58:45.861Z,166.50
2018-07-05T08:00:17.230Z,147.60
2018-07-05T08:01:48.799Z,213.10
2018-07-05T08:03:20.370Z,211.10
2018-07-05T08:04:52.188Z,270.00
2018-07-05T08:06:23.506Z,196.20
2018-07-05T08:07:55.115Z,243.50
2018-07-05T08:09:26.645Z,281.50
2018-07-05T08:10:58.214Z,310.40
2018-07-05T08:12:29.783Z,204.10
2018-07-05T08:14:01.352Z,142.20
2018-07-05T08:15:32.921Z,144.10
2018-07-05T08:17:04.745Z,153.00
2018-07-05T08:18:36.060Z,166.90
2018-07-05T08:20:07.629Z,169.60
2018-07-05T08:21:39.197Z,242.00
2018-07-05T08:23:10.767Z,231.90
2018-07-05T08:24:42.338Z,164.10
2018-07-05T08:26:13.908Z,228.30
2018-07-05T08:27:45.477Z,194.70
2018-07-05T08:29:17.143Z,296.20
2018-07-05T08:30:48.612Z,356.30
2018-07-05T08:32:20.181Z,364.20
2018-07-05T08:33:51.751Z,358.70
2018-07-05T08:35:23.670Z,397.70
2018-07-05T08:36:54.891Z,369.60
2018-07-05T08:38:26.458Z,417.60
2018-07-05T08:39:58.028Z,476.10
2018-07-05T08:41:29.599Z,574.40
2018-07-05T08:43:01.167Z,608.60
2018-07-05T08:44:32.736Z,541.00
2018-07-05T08:46:04.305Z,607.50
2018-07-05T08:47:35.874Z,669.70
2018-07-05T08:49:07.444Z,599.30
2018-07-05T08:50:39.013Z,636.10
2018-07-05T08:52:10.583Z,626.80
2018-07-05T08:53:42.253Z,599.90
2018-07-05T08:55:16.627Z,511.10
2018-07-05T08:56:45.293Z,670.20
2018-07-05T08:58:16.936Z,724.20
2018-07-05T08:59:48.532Z,736.80
2018-07-05T09:01:20.002Z,761.50
2018-07-05T09:02:51.571Z,694.20
2018-07-05T09:04:23.141Z,851.40
2018-07-05T09:05:54.962Z,895.20
2018-07-05T09:07:26.281Z,807.20
2018-07-05T09:08:57.851Z,816.80
2018-07-05T09:10:29.421Z,772.90
2018-07-05T09:12:01.091Z,686.50
2018-07-05T09:13:32.560Z,812.60
2018-07-05T09:15:04.131Z,741.10
2018-07-05T09:16:35.704Z,790.40
2018-07-05T09:18:07.420Z,819.70
2018-07-05T09:19:38.840Z,687.20
2018-07-05T09:21:10.410Z,775.70
2018-07-05T09:22:41.980Z,684.40
2018-07-05T09:24:13.549Z,691.10
2018-07-05T09:25:45.119Z,656.10
2018-07-05T09:27:16.690Z,666.80
2018-07-05T09:28:48.259Z,742.90
2018-07-05T09:30:20.030Z,823.40
2018-07-05T09:31:51.440Z,625.30
2018-07-05T09:33:22.969Z,621.90
2018-07-05T09:34:54.539Z,695.10
2018-07-05T09:36:26.361Z,748.50
2018-07-05T09:37:57.679Z,734.20
2018-07-05T09:39:29.248Z,748.50
2018-07-05T09:41:00.818Z,655.60
2018-07-05T09:42:32.390Z,812.20
2018-07-05T09:44:03.958Z,622.00
2018-07-05T09:45:35.532Z,595.00
2018-07-05T09:47:07.211Z,826.50
2018-07-05T09:48:38.967Z,634.20
2018-07-05T09:50:10.237Z,725.00
2018-07-05T09:51:41.830Z,532.50
2018-07-05T09:53:13.376Z,755.90
2018-07-05T09:54:44.946Z,743.80
2018-07-05T09:56:16.517Z,649.30
2018-07-05T09:57:48.086Z,485.70
2018-07-05T09:59:19.656Z,616.70
2018-07-05T10:00:51.326Z,623.20
2018-07-05T10:02:22.798Z,788.60
2018-07-05T10:03:54.366Z,625.90
2018-07-05T10:05:25.938Z,547.20
2018-07-05T10:06:57.856Z,829.90
2018-07-05T10:08:29.075Z,644.50
2018-07-05T10:10:00.646Z,530.20
2018-07-05T10:11:32.215Z,571.00
2018-07-05T10:13:03.818Z,543.60
2018-07-05T10:14:35.357Z,646.40
2018-07-05T10:16:06.926Z,588.80
2018-07-05T10:17:38.503Z,475.50
2018-07-05T10:19:10.066Z,456.60
2018-07-05T10:20:41.636Z,587.60
2018-07-05T10:22:13.207Z,545.80
2018-07-05T10:23:44.776Z,511.30
2018-07-05T10:25:16.448Z,619.50
2018-07-05T10:26:47.917Z,554.90
2018-07-05T10:28:19.486Z,604.30
2018-07-05T10:29:51.086Z,468.80
2018-07-05T10:31:22.627Z,481.30
2018-07-05T10:32:54.250Z,466.40
2018-07-05T10:34:25.769Z,310.60
2018-07-05T10:35:57.338Z,447.90
2018-07-05T10:37:29.160Z,591.40
2018-07-05T10:39:00.482Z,470.00
2018-07-05T10:40:32.050Z,571.60
2018-07-05T10:42:03.619Z,565.00
2018-07-05T10:43:35.292Z,513.60
2018-07-05T10:45:06.760Z,595.70
2018-07-05T10:46:38.635Z,574.90
2018-07-05T10:48:09.901Z,538.30
2018-07-05T10:49:41.471Z,527.90
2018-07-05T10:51:13.042Z,546.30
2018-07-05T10:54:16.184Z,615.40
2018-07-05T10:55:47.780Z,530.70
2018-07-05T10:57:19.327Z,506.10
2018-07-05T10:58:50.894Z,572.30
2018-07-05T11:00:22.669Z,513.70
2018-07-05T11:01:54.258Z,610.40
2018-07-05T11:03:25.778Z,585.40
2018-07-05T11:04:57.177Z,607.10
2018-07-05T11:06:28.748Z,485.40
2018-07-05T11:08:00.569Z,451.50
2018-07-05T11:09:31.889Z,475.20
2018-07-05T11:11:03.460Z,486.60
2018-07-05T11:12:35.031Z,449.80
2018-07-05T11:14:06.906Z,412.40
2018-07-05T11:15:38.175Z,424.40
2018-07-05T11:17:09.744Z,491.00
2018-07-05T11:18:41.316Z,488.20
2018-07-05T11:20:12.987Z,463.80
2018-07-05T11:21:44.661Z,496.40
2018-07-05T11:23:16.029Z,470.50
2018-07-05T11:24:47.651Z,459.00
2018-07-05T11:26:19.271Z,444.60
2018-07-05T11:27:50.742Z,511.70
2018-07-05T11:29:22.313Z,389.20
2018-07-05T11:30:53.885Z,272.70
2018-07-05T11:32:25.560Z,287.80
2018-07-05T11:33:57.030Z,211.10
2018-07-05T11:35:28.606Z,300.50
2018-07-05T11:37:00.170Z,238.50
2018-07-05T11:38:31.841Z,372.60
2018-07-05T11:40:03.316Z,393.30
2018-07-05T11:41:34.885Z,407.90
2018-07-05T11:43:06.658Z,432.40
2018-07-05T11:44:38.138Z,349.70
2018-07-05T11:46:09.601Z,330.70
2018-07-05T11:47:41.173Z,253.70
2018-07-05T11:49:12.745Z,232.40
2018-07-05T11:50:44.325Z,203.70
2018-07-05T11:52:15.975Z,200.80
2018-07-05T11:53:47.490Z,201.40
2018-07-05T11:55:19.033Z,186.40
2018-07-05T11:56:50.705Z,179.70
2018-07-05T11:58:22.179Z,166.30
2018-07-05T11:59:53.818Z,173.80
2018-07-05T12:01:25.326Z,171.10
2018-07-05T12:02:56.981Z,161.20
2018-07-05T12:04:28.675Z,119.10
2018-07-05T12:06:00.345Z,121.60
2018-07-05T12:07:31.613Z,99.30
2018-07-05T12:09:03.188Z,128.20
2018-07-05T12:10:34.772Z,112.70
2018-07-05T12:12:06.333Z,103.40
2018-07-05T12:13:37.925Z,106.00
2018-07-05T12:15:09.581Z,113.00
2018-07-05T12:16:41.054Z,98.20
2018-07-05T12:18:12.628Z,100.10
2018-07-05T12:19:44.217Z,93.40
2018-07-05T12:21:15.776Z,89.60
2018-07-05T12:22:47.958Z,87.60
2018-07-05T12:24:18.981Z,102.90
2018-07-05T12:27:22.102Z,97.50
2018-07-05T12:28:53.650Z,94.90
2018-07-05T12:30:25.225Z,86.10
2018-07-05T12:31:56.806Z,90.30
2018-07-05T12:33:28.683Z,89.30
2018-07-05T12:34:59.952Z,95.70
2018-07-05T12:36:31.527Z,99.30
2018-07-05T12:38:03.675Z,91.70
2018-07-05T12:41:06.559Z,83.00
2018-07-05T12:42:38.137Z,77.90
2018-07-05T12:44:09.407Z,69.70
2018-07-05T12:45:40.985Z,54.20
2018-07-05T12:47:12.965Z,57.80
2018-07-05T12:50:15.716Z,57.50
2018-07-05T12:51:47.341Z,50.90
2018-07-05T12:53:19.115Z,55.80
2018-07-05T12:54:50.450Z,55.30
2018-07-05T12:56:22.540Z,50.20
2018-07-05T12:57:53.606Z,50.90
2018-07-05T12:59:25.187Z,49.90
2018-07-05T13:00:56.764Z,48.60
2018-07-05T13:02:28.343Z,50.90
2018-07-05T13:04:00.008Z,45.60
2018-07-05T13:05:31.505Z,45.70
2018-07-05T13:07:03.082Z,43.90
2018-07-05T13:08:34.966Z,43.10
2018-07-05T13:10:06.778Z,46.00
2018-07-05T13:11:37.922Z,41.90
2018-07-05T13:13:09.402Z,45.90
2018-07-05T13:14:40.984Z,44.70
2018-07-05T13:17:44.365Z,42.00
2018-07-05T13:19:15.825Z,39.00
2018-07-05T13:20:47.613Z,46.20
2018-07-05T13:22:18.924Z,44.70
2018-07-05T13:23:50.465Z,41.20
2018-07-05T13:26:53.629Z,42.90
2018-07-05T13:29:57.193Z,43.50
2018-07-05T13:31:29.328Z,41.40
2018-07-05T13:32:59.998Z,38.30
2018-07-05T13:34:31.535Z,39.70
2018-07-05T13:37:34.863Z,40.40
2018-07-05T13:39:06.278Z,40.50
2018-07-05T13:42:09.707Z,37.80
2018-07-05T13:43:41.325Z,37.30
2018-07-05T13:45:12.607Z,37.30
2018-07-05T13:46:44.185Z,38.60
2018-07-05T13:48:15.944Z,36.20
2018-07-05T13:49:47.704Z,36.90
2018-07-05T13:51:18.932Z,34.50
2018-07-05T13:52:50.713Z,37.60
2018-07-05T13:54:22.093Z,33.90
2018-07-05T13:55:54.456Z,33.80
2018-07-05T13:57:25.254Z,39.40
2018-07-05T13:58:57.041Z,36.40
2018-07-05T14:00:28.425Z,36.90
2018-07-05T14:02:00.203Z,37.00
2018-07-05T14:03:31.606Z,36.40
2018-07-05T14:05:03.367Z,33.30
2018-07-05T14:06:34.747Z,31.40
2018-07-05T14:08:06.434Z,35.30
2018-07-05T14:09:38.113Z,37.60
2018-07-05T14:11:09.493Z,33.90
2018-07-05T14:12:41.075Z,33.70
2018-07-05T14:14:12.658Z,35.50
2018-07-05T14:15:44.544Z,37.50
2018-07-05T14:17:15.822Z,34.20
2018-07-05T14:18:47.406Z,31.90
2018-07-05T14:20:19.139Z,32.90
2018-07-05T14:21:50.574Z,32.10
2018-07-05T14:23:22.154Z,33.10
2018-07-05T14:24:53.838Z,33.50
2018-07-05T14:26:25.614Z,35.90
2018-07-05T14:29:28.690Z,39.30
2018-07-05T14:31:00.105Z,33.10
2018-07-05T14:32:32.058Z,31.60
2018-07-05T14:34:03.252Z,30.80
2018-07-05T14:35:35.376Z,29.50
2018-07-05T14:37:06.646Z,31.30
2018-07-05T14:38:37.996Z,34.40
2018-07-05T14:40:09.794Z,33.30
2018-07-05T14:43:13.269Z,34.00
2018-07-05T14:46:16.459Z,30.80
2018-07-05T14:47:47.485Z,29.50
2018-07-05T14:49:19.068Z,31.50
2018-07-05T14:50:50.652Z,31.70
2018-07-05T14:53:53.823Z,31.60
2018-07-05T14:56:56.987Z,32.30
2018-07-05T14:58:28.635Z,31.00
2018-07-05T15:00:00.157Z,29.10
2018-07-05T15:01:31.744Z,28.60
2018-07-05T15:03:03.342Z,30.60
2018-07-05T15:04:34.908Z,29.90
2018-07-05T15:06:06.593Z,31.00
2018-07-05T15:07:38.076Z,31.70
2018-07-05T15:10:41.246Z,30.40
2018-07-05T15:12:13.122Z,30.50
2018-07-05T15:13:44.438Z,28.50
2018-07-05T15:15:16.008Z,25.00
2018-07-05T15:16:47.585Z,24.30
2018-07-05T15:18:19.214Z,26.50
2018-07-05T15:19:50.921Z,26.40
2018-07-05T15:21:23.406Z,28.30
2018-07-05T15:22:54.125Z,28.30
2018-07-05T15:25:57.592Z,26.50
2018-07-05T15:27:28.687Z,27.80
2018-07-05T15:29:00.266Z,28.80
2018-07-05T15:30:31.860Z,28.20
2018-07-05T15:32:03.429Z,28.20
2018-07-05T15:33:35.015Z,26.90
2018-07-05T15:35:06.603Z,28.10
2018-07-05T15:36:38.186Z,26.70
2018-07-05T15:38:09.769Z,26.50
2018-07-05T15:39:41.356Z,28.40
2018-07-05T15:41:12.939Z,26.90
2018-07-05T15:42:45.461Z,24.10
2018-07-05T15:44:16.210Z,17.40
2018-07-05T15:45:47.696Z,20.90
2018-07-05T15:48:50.864Z,20.70
2018-07-05T15:50:22.754Z,18.10
2018-07-05T15:51:54.035Z,16.20
2018-07-05T15:53:25.620Z,17.00
2018-07-05T15:54:57.431Z,20.50
2018-07-05T15:56:28.790Z,18.00
2018-07-05T15:58:00.377Z,19.00
2018-07-05T15:59:31.961Z,18.50
2018-07-05T16:02:35.232Z,15.50
2018-07-05T16:04:07.223Z,13.90
2018-07-05T16:05:38.302Z,12.30
2018-07-05T16:07:09.887Z,12.30
2018-07-05T16:08:41.675Z,13.20
2018-07-05T16:10:13.079Z,16.50
2018-07-05T16:13:16.230Z,15.60
2018-07-05T16:14:47.815Z,15.20
2018-07-05T16:16:19.635Z,14.00
2018-07-05T16:17:50.986Z,13.80
2018-07-05T16:19:22.829Z,14.00
2018-07-05T16:20:54.260Z,14.60
2018-07-05T16:22:25.744Z,13.80
2018-07-05T16:23:57.380Z,17.70
2018-07-05T16:25:29.227Z,16.50
2018-07-05T16:27:00.602Z,17.60
2018-07-05T16:28:32.088Z,19.10
2018-07-05T16:30:03.677Z,19.00
2018-07-05T16:31:35.259Z,17.70
2018-07-05T16:33:07.148Z,16.30
2018-07-05T16:34:38.460Z,20.50
2018-07-05T16:36:10.036Z,16.60
2018-07-05T16:37:41.805Z,17.90
2018-07-05T16:39:13.493Z,19.20
2018-07-05T16:40:45.310Z,14.70
2018-07-05T16:42:16.364Z,15.80
2018-07-05T16:43:47.947Z,14.90
2018-07-05T16:45:19.532Z,16.60
2018-07-05T16:46:51.117Z,17.00
2018-07-05T16:49:54.534Z,12.90
2018-07-05T16:51:25.874Z,12.40
2018-07-05T16:52:57.460Z,13.90
2018-07-05T16:56:00.748Z,11.60
2018-07-05T16:57:32.317Z,12.10
2018-07-05T16:59:03.799Z,12.10
2018-07-05T17:00:35.385Z,14.00
2018-07-05T17:05:10.169Z,12.60
2018-07-05T17:06:41.728Z,14.60
2018-07-05T17:08:13.309Z,13.00
2018-07-05T17:11:16.506Z,14.40
2018-07-05T17:12:48.062Z,13.50
2018-07-05T17:14:19.644Z,15.50
2018-07-05T17:15:51.240Z,13.90
2018-07-05T17:17:23.354Z,14.30
2018-07-05T17:18:54.424Z,14.90
2018-07-05T17:20:25.983Z,14.20
2018-07-05T17:21:57.568Z,15.00
2018-07-05T17:25:00.769Z,16.90
2018-07-05T17:26:32.325Z,14.70
2018-07-05T17:28:03.910Z,14.00
2018-07-05T17:29:35.495Z,14.20
2018-07-05T17:34:10.349Z,16.00
2018-07-05T17:35:41.835Z,13.80
2018-07-05T17:37:13.419Z,13.30
2018-07-05T17:38:45.307Z,12.60
2018-07-05T17:40:16.849Z,11.70
2018-07-05T17:41:48.347Z,11.50
2018-07-05T17:43:19.757Z,12.10
2018-07-05T17:44:51.340Z,12.10
2018-07-05T17:47:55.582Z,10.60
2018-07-05T17:49:27.031Z,11.90
2018-07-05T17:50:57.702Z,10.50
2018-07-05T17:52:29.257Z,12.50
2018-07-05T17:54:01.252Z,14.50
2018-07-05T17:55:32.509Z,11.60
2018-07-05T17:57:04.005Z,12.50
2018-07-05T17:58:35.601Z,13.50
2018-07-05T18:00:07.398Z,14.10
2018-07-05T18:01:38.805Z,12.30
2018-07-05T18:03:10.336Z,13.30
2018-07-05T18:04:41.918Z,13.80
2018-07-05T18:06:13.501Z,12.30
2018-07-05T18:07:45.337Z,11.80
2018-07-05T18:09:16.717Z,13.40
2018-07-05T18:10:48.294Z,12.40
2018-07-05T18:13:51.720Z,15.70
2018-07-05T18:16:54.883Z,16.60
2018-07-05T18:18:26.181Z,14.70
2018-07-05T18:19:58.085Z,13.00
2018-07-05T18:21:29.339Z,14.30
2018-07-05T18:24:33.243Z,13.00
2018-07-05T18:26:04.088Z,14.60
2018-07-05T18:27:35.656Z,11.60
2018-07-05T18:29:07.235Z,12.60
2018-07-05T18:30:38.818Z,13.30
2018-07-05T18:32:10.700Z,15.50
2018-07-05T18:33:42.040Z,11.90
2018-07-05T18:35:13.564Z,12.20
2018-07-05T18:36:45.179Z,13.80
2018-07-05T18:38:16.731Z,15.10
2018-07-05T18:39:48.820Z,12.10
2018-07-05T18:41:19.895Z,12.30
2018-07-05T18:42:51.478Z,11.70
2018-07-05T18:44:23.060Z,13.30
2018-07-05T18:45:54.643Z,15.40
2018-07-05T18:47:26.242Z,15.50
2018-07-05T18:50:29.694Z,14.60
2018-07-05T18:52:01.159Z,13.30
2018-07-05T18:53:32.915Z,14.70
2018-07-05T18:55:04.169Z,12.40
2018-07-05T18:56:35.727Z,11.60
2018-07-05T18:58:07.304Z,11.60
2018-07-05T18:59:39.189Z,12.40
2018-07-05T19:01:10.467Z,14.70
2018-07-05T19:02:42.149Z,12.70
2018-07-05T19:04:13.632Z,12.60
2018-07-05T19:05:45.415Z,12.70
2018-07-05T19:07:16.997Z,13.10
2018-07-05T19:08:48.729Z,14.80
2018-07-05T19:11:51.743Z,14.30
2018-07-05T19:13:23.121Z,12.80
2018-07-05T19:14:54.702Z,13.40
2018-07-05T19:16:26.400Z,14.60
2018-07-05T19:17:57.866Z,14.00
2018-07-05T19:19:29.451Z,13.50
2018-07-05T19:21:01.028Z,13.50
2018-07-05T19:22:32.912Z,13.60
2018-07-05T19:24:04.241Z,13.90
2018-07-05T19:25:36.318Z,12.50
2018-07-05T19:27:08.368Z,14.80
2018-07-05T19:28:39.211Z,12.40
2018-07-05T19:30:10.526Z,16.50
2018-07-05T19:31:42.096Z,14.80
2018-07-05T19:33:13.699Z,18.90
2018-07-05T19:36:17.044Z,12.30
2018-07-05T19:37:48.418Z,14.50
2018-07-05T19:39:20.000Z,17.90
2018-07-05T19:40:51.581Z,19.40
2018-07-05T19:43:54.742Z,23.00
2018-07-05T19:45:26.525Z,20.10
2018-07-05T19:46:57.971Z,15.80
2018-07-05T19:48:29.492Z,14.10
2018-07-05T19:50:01.073Z,15.40
2018-07-05T19:51:33.075Z,14.30
2018-07-05T19:53:04.223Z,14.40
2018-07-05T19:54:35.801Z,14.10
2018-07-05T19:56:07.381Z,15.40
2018-07-05T19:57:39.265Z,17.80
2018-07-05T19:59:10.541Z,16.80
2018-07-05T20:00:42.159Z,18.90
2018-07-05T20:02:13.699Z,17.90
2018-07-05T20:03:45.528Z,15.10
2018-07-05T20:06:48.453Z,19.00
2018-07-05T20:08:20.014Z,15.60
2018-07-05T20:09:51.593Z,18.50
2018-07-05T20:11:23.194Z,18.60